createdAt,value
2018-09-03T00:00:00.547Z,100844.92
2018-09-03T00:02:29.694Z,100848.66
2018-09-03T00:04:59.156Z,100841.21
2018-09-03T00:07:27.431Z,100842.99
2018-09-03T00:09:55.499Z,100840.73
2018-09-03T00:12:23.624Z,100833.19
2018-09-03T00:14:51.652Z,100827.75
2018-09-03T00:17:19.782Z,100826.73
2018-09-03T00:19:47.910Z,100822.45
2018-09-03T00:22:15.982Z,100818.92
2018-09-03T00:24:44.043Z,100819.92
2018-09-03T00:27:12.107Z,100813.25
2018-09-03T00:29:40.174Z,100809.14
2018-09-03T00:32:13.675Z,100809.99
2018-09-03T00:34:47.123Z,100812.55
2018-09-03T00:37:20.543Z,100806.90
2018-09-03T00:39:53.991Z,100815.73
2018-09-03T00:42:27.368Z,100813.55
2018-09-03T00:45:00.856Z,100816.77
2018-09-03T00:47:28.947Z,100823.36
2018-09-03T00:49:57.006Z,100831.31
2018-09-03T00:52:25.099Z,100839.27
2018-09-03T00:54:53.189Z,100846.91
2018-09-03T00:57:21.352Z,100845.17
2018-09-03T00:59:49.512Z,100849.02
2018-09-03T01:02:17.591Z,100850.91
2018-09-03T01:04:45.655Z,100851.72
2018-09-03T01:07:13.713Z,100848.45
2018-09-03T01:09:41.783Z,100833.25
2018-09-03T01:12:09.867Z,100838.52
2018-09-03T01:14:37.975Z,100837.48
2018-09-03T01:17:06.097Z,100844.69
2018-09-03T01:19:34.149Z,100838.59
2018-09-03T01:22:02.217Z,100834.09
2018-09-03T01:24:30.293Z,100836.39
2018-09-03T01:26:58.381Z,100845.35
2018-09-03T01:29:26.490Z,100848.97
2018-09-03T01:31:56.188Z,100841.17
2018-09-03T01:34:25.383Z,100854.83
2018-09-03T01:36:53.467Z,100847.23
2018-09-03T01:39:21.558Z,100854.98
2018-09-03T01:41:49.626Z,100864.17
2018-09-03T01:44:17.707Z,100856.33
2018-09-03T01:46:45.887Z,100848.53
2018-09-03T01:49:13.954Z,100848.13
2018-09-03T01:51:42.047Z,100845.86
2018-09-03T01:54:10.151Z,100840.30
2018-09-03T01:56:38.296Z,100840.78
2018-09-03T01:59:13.115Z,100843.05
2018-09-03T02:01:41.163Z,100839.94
2018-09-03T02:04:09.243Z,100833.66
2018-09-03T02:06:37.316Z,100829.97
2018-09-03T02:09:08.846Z,100833.35
2018-09-03T02:11:36.963Z,100826.82
2018-09-03T02:14:05.055Z,100828.70
2018-09-03T02:16:33.233Z,100835.94
2018-09-03T02:19:01.312Z,100826.31
2018-09-03T02:21:29.428Z,100821.78
2018-09-03T02:23:57.550Z,100819.07
2018-09-03T02:26:25.603Z,100820.73
2018-09-03T02:28:53.708Z,100819.55
2018-09-03T02:31:21.806Z,100821.06
2018-09-03T02:33:49.983Z,100822.05
2018-09-03T02:36:18.282Z,100810.95
2018-09-03T02:38:46.407Z,100808.13
2018-09-03T02:41:14.599Z,100816.16
2018-09-03T02:43:42.743Z,100820.58
2018-09-03T02:46:10.798Z,100828.49
2018-09-03T02:48:38.868Z,100828.49
2018-09-03T02:51:07.025Z,100834.50
2018-09-03T02:53:35.148Z,100826.98
2018-09-03T02:56:03.211Z,100827.27
2018-09-03T02:58:31.305Z,100833.95
2018-09-03T03:00:59.370Z,100819.46
2018-09-03T03:03:27.444Z,100818.94
2018-09-03T03:05:55.527Z,100812.05
2018-09-03T03:08:23.621Z,100805.02
2018-09-03T03:10:51.730Z,100797.89
2018-09-03T03:13:19.861Z,100801.64
2018-09-03T03:15:47.928Z,100798.94
2018-09-03T03:18:16.008Z,100796.06
2018-09-03T03:20:44.076Z,100792.75
2018-09-03T03:23:12.183Z,100790.73
2018-09-03T03:25:40.278Z,100788.55
2018-09-03T03:28:08.356Z,100779.67
2018-09-03T03:30:36.456Z,100773.72
2018-09-03T03:33:04.551Z,100772.64
2018-09-03T03:35:32.651Z,100769.95
2018-09-03T03:38:00.732Z,100765.81
2018-09-03T03:40:28.835Z,100761.13
2018-09-03T03:42:56.880Z,100748.89
2018-09-03T03:45:25.152Z,100746.54
2018-09-03T03:47:53.223Z,100739.53
2018-09-03T03:50:21.432Z,100735.41
2018-09-03T03:52:49.523Z,100729.72
2018-09-03T03:55:17.674Z,100729.95
2018-09-03T03:57:45.743Z,100735.05
2018-09-03T04:00:13.832Z,100737.31
2018-09-03T04:02:41.944Z,100740.17
2018-09-03T04:05:10.039Z,100747.73
2018-09-03T04:07:38.115Z,100743.00
2018-09-03T04:10:06.600Z,100742.36
2018-09-03T04:12:34.683Z,100738.83
2018-09-03T04:15:02.761Z,100734.53
2018-09-03T04:17:30.847Z,100739.13
2018-09-03T04:20:02.641Z,100747.85
2018-09-03T04:22:31.577Z,100755.91
2018-09-03T04:24:59.711Z,100761.45
2018-09-03T04:27:27.819Z,100748.08
2018-09-03T04:29:55.937Z,100743.83
2018-09-03T04:32:24.184Z,100729.88
2018-09-03T04:34:52.271Z,100723.56
2018-09-03T04:37:20.399Z,100721.02
2018-09-03T04:39:48.581Z,100717.52
2018-09-03T04:42:16.677Z,100724.51
2018-09-03T04:44:44.795Z,100727.14
2018-09-03T04:47:12.900Z,100737.83
2018-09-03T04:49:41.012Z,100744.06
2018-09-03T04:52:09.095Z,100743.83
2018-09-03T04:54:37.277Z,100741.20
2018-09-03T04:57:05.468Z,100737.95
2018-09-03T04:59:33.661Z,100738.34
2018-09-03T05:02:01.884Z,100741.09
2018-09-03T05:04:30.042Z,100746.02
2018-09-03T05:06:58.316Z,100746.85
2018-09-03T05:09:26.413Z,100749.79
2018-09-03T05:11:54.607Z,100755.11
2018-09-03T05:14:22.719Z,100754.75
2018-09-03T05:16:50.849Z,100753.69
2018-09-03T05:19:19.381Z,100754.41
2018-09-03T05:21:47.489Z,100752.88
2018-09-03T05:24:15.728Z,100757.31
2018-09-03T05:26:44.265Z,100753.27
2018-09-03T05:29:12.347Z,100755.66
2018-09-03T05:31:40.431Z,100755.16
2018-09-03T05:34:08.522Z,100753.38
2018-09-03T05:36:36.610Z,100752.37
2018-09-03T05:39:07.613Z,100760.32
2018-09-03T05:41:35.690Z,100752.02
2018-09-03T05:44:03.840Z,100752.69
2018-09-03T05:46:31.913Z,100758.34
2018-09-03T05:49:00.127Z,100758.28
2018-09-03T05:51:28.206Z,100752.94
2018-09-03T05:53:56.295Z,100757.20
2018-09-03T05:56:24.400Z,100752.73
2018-09-03T05:58:52.513Z,100756.66
2018-09-03T06:01:20.592Z,100756.38
2018-09-03T06:03:48.697Z,100754.61
2018-09-03T06:06:16.831Z,100748.19
2018-09-03T06:08:44.925Z,100749.47
2018-09-03T06:11:13.037Z,100747.36
2018-09-03T06:13:41.233Z,100745.23
2018-09-03T06:16:09.425Z,100748.30
2018-09-03T06:18:37.520Z,100744.89
2018-09-03T06:21:05.747Z,100749.44
2018-09-03T06:23:34.057Z,100748.26
2018-09-03T06:26:02.210Z,100748.08
2018-09-03T06:28:30.347Z,100751.24
2018-09-03T06:30:58.472Z,100742.00
2018-09-03T06:33:26.583Z,100745.97
2018-09-03T06:35:54.723Z,100743.08
2018-09-03T06:38:22.723Z,100752.42
2018-09-03T06:40:50.810Z,100742.73
2018-09-03T06:43:18.967Z,100745.89
2018-09-03T06:45:47.106Z,100734.77
2018-09-03T06:48:15.135Z,100744.63
2018-09-03T06:50:43.207Z,100733.73
2018-09-03T06:53:11.278Z,100740.27
2018-09-03T06:55:39.358Z,100747.72
2018-09-03T06:58:07.440Z,100747.84
2018-09-03T07:00:35.571Z,100744.67
2018-09-03T07:03:03.636Z,100732.88
2018-09-03T07:05:31.831Z,100734.75
2018-09-03T07:07:59.935Z,100730.69
2018-09-03T07:10:28.019Z,100737.34
2018-09-03T07:12:56.121Z,100745.66
2018-09-03T07:15:24.199Z,100738.95
2018-09-03T07:17:52.410Z,100733.19
2018-09-03T07:20:20.497Z,100737.72
2018-09-03T07:22:48.571Z,100747.66
2018-09-03T07:25:16.643Z,100748.52
2018-09-03T07:27:44.723Z,100747.94
2018-09-03T07:30:12.796Z,100746.20
2018-09-03T07:32:40.885Z,100734.06
2018-09-03T07:35:09.001Z,100732.73
2018-09-03T07:37:37.047Z,100737.55
2018-09-03T07:40:05.652Z,100740.66
2018-09-03T07:42:33.737Z,100741.62
2018-09-03T07:45:01.831Z,100738.58
2018-09-03T07:47:29.925Z,100735.95
2018-09-03T07:49:58.033Z,100743.31
2018-09-03T07:52:26.093Z,100740.72
2018-09-03T07:54:54.272Z,100741.77
2018-09-03T07:57:22.410Z,100733.83
2018-09-03T07:59:50.514Z,100726.33
2018-09-03T08:02:18.679Z,100719.15
2018-09-03T08:04:46.760Z,100720.64
2018-09-03T08:07:14.876Z,100721.42
2018-09-03T08:09:43.006Z,100722.27
2018-09-03T08:12:11.081Z,100719.84
2018-09-03T08:14:39.301Z,100718.83
2018-09-03T08:17:07.511Z,100714.34
2018-09-03T08:19:35.608Z,100706.56
2018-09-03T08:22:03.685Z,100707.82
2018-09-03T08:24:31.778Z,100708.34
2018-09-03T08:26:59.916Z,100711.91
2018-09-03T08:29:28.025Z,100714.09
2018-09-03T08:31:56.194Z,100710.45
2018-09-03T08:34:24.246Z,100702.47
2018-09-03T08:36:52.342Z,100709.58
2018-09-03T08:39:20.487Z,100705.66
2018-09-03T08:41:48.635Z,100705.41
2018-09-03T08:44:16.707Z,100706.09
2018-09-03T08:46:44.828Z,100711.86
2018-09-03T08:49:12.971Z,100713.53
2018-09-03T08:51:41.077Z,100715.77
2018-09-03T08:54:09.223Z,100717.08
2018-09-03T08:56:37.310Z,100711.91
2018-09-03T08:59:05.424Z,100713.44
2018-09-03T09:01:33.547Z,100710.34
2018-09-03T09:04:01.585Z,100717.44
2018-09-03T09:06:29.676Z,100705.11
2018-09-03T09:08:57.814Z,100707.98
2018-09-03T09:11:25.907Z,100700.15
2018-09-03T09:13:53.985Z,100698.80
2018-09-03T09:16:22.056Z,100708.48
2018-09-03T09:18:50.139Z,100702.35
2018-09-03T09:21:18.222Z,100704.02
2018-09-03T09:23:46.319Z,100695.99
2018-09-03T09:26:14.706Z,100690.25
2018-09-03T09:28:42.788Z,100695.47
2018-09-03T09:31:10.881Z,100692.05
2018-09-03T09:33:38.952Z,100689.29
2018-09-03T09:36:07.027Z,100689.11
2018-09-03T09:38:35.123Z,100680.45
2018-09-03T09:41:03.192Z,100680.61
2018-09-03T09:43:31.275Z,100675.00
2018-09-03T09:45:59.507Z,100675.48
2018-09-03T09:48:27.626Z,100679.96
2018-09-03T09:50:55.686Z,100679.42
2018-09-03T09:53:23.784Z,100676.84
2018-09-03T09:55:51.868Z,100679.79
2018-09-03T09:58:19.976Z,100677.87
2018-09-03T10:00:53.713Z,100673.64
2018-09-03T10:03:22.097Z,100663.62
2018-09-03T10:05:50.175Z,100661.84
2018-09-03T10:08:18.275Z,100663.17
2018-09-03T10:10:46.354Z,100655.99
2018-09-03T10:13:14.448Z,100658.52
2018-09-03T10:15:42.515Z,100654.22
2018-09-03T10:18:10.583Z,100652.83
2018-09-03T10:20:38.702Z,100655.31
2018-09-03T10:23:07.109Z,100655.08
2018-09-03T10:25:35.232Z,100653.14
2018-09-03T10:28:03.306Z,100648.49
2018-09-03T10:30:31.367Z,100655.39
2018-09-03T10:32:59.484Z,100647.47
2018-09-03T10:35:27.560Z,100654.05
2018-09-03T10:37:55.611Z,100652.14
2018-09-03T10:40:23.711Z,100653.72
2018-09-03T10:42:51.862Z,100647.02
2018-09-03T10:45:19.917Z,100648.39
2018-09-03T10:47:48.039Z,100640.98
2018-09-03T10:50:16.446Z,100643.69
2018-09-03T10:52:44.552Z,100643.66
2018-09-03T10:55:12.650Z,100639.34
2018-09-03T10:57:40.739Z,100640.70
2018-09-03T11:00:08.875Z,100639.56
2018-09-03T11:02:37.031Z,100636.81
2018-09-03T11:05:05.188Z,100627.78
2018-09-03T11:07:33.305Z,100628.92
2018-09-03T11:10:01.398Z,100630.81
2018-09-03T11:12:29.480Z,100623.72
2018-09-03T11:14:57.567Z,100639.34
2018-09-03T11:17:25.648Z,100636.67
2018-09-03T11:19:56.938Z,100638.48
2018-09-03T11:22:25.990Z,100637.73
2018-09-03T11:24:54.053Z,100633.19
2018-09-03T11:27:22.175Z,100623.23
2018-09-03T11:29:50.248Z,100632.77
2018-09-03T11:32:18.388Z,100624.28
2018-09-03T11:34:46.751Z,100624.38
2018-09-03T11:37:14.836Z,100623.61
2018-09-03T11:39:42.929Z,100621.70
2018-09-03T11:42:11.008Z,100625.25
2018-09-03T11:44:39.101Z,100629.89
2018-09-03T11:47:07.172Z,100620.91
2018-09-03T11:49:35.267Z,100615.14
2018-09-03T11:52:03.331Z,100619.57
2018-09-03T11:54:31.443Z,100624.73
2018-09-03T11:56:59.495Z,100622.29
2018-09-03T11:59:27.581Z,100625.27
2018-09-03T12:01:55.651Z,100623.06
2018-09-03T12:04:23.733Z,100621.72
2018-09-03T12:06:51.810Z,100619.27
2018-09-03T12:09:19.885Z,100617.34
2018-09-03T12:11:47.960Z,100613.52
2018-09-03T12:14:22.047Z,100619.25
2018-09-03T12:16:50.157Z,100617.62
2018-09-03T12:19:18.226Z,100619.55
2018-09-03T12:21:46.308Z,100626.62
2018-09-03T12:24:14.387Z,100612.43
2018-09-03T12:26:42.471Z,100619.52
2018-09-03T12:29:10.567Z,100620.05
2018-09-03T12:31:38.664Z,100621.14
2018-09-03T12:34:06.764Z,100620.62
2018-09-03T12:36:34.814Z,100619.25
2018-09-03T12:39:02.904Z,100624.17
2018-09-03T12:41:30.979Z,100619.52
2018-09-03T12:43:59.382Z,100618.95
2018-09-03T12:46:27.461Z,100614.01
2018-09-03T12:48:55.523Z,100616.78
2018-09-03T12:51:23.632Z,100611.89
2018-09-03T12:53:51.719Z,100614.30
2018-09-03T12:56:19.788Z,100607.20
2018-09-03T12:58:47.900Z,100612.43
2018-09-03T13:01:15.939Z,100606.16
2018-09-03T13:03:44.023Z,100611.91
2018-09-03T13:06:12.203Z,100600.73
2018-09-03T13:08:40.256Z,100608.09
2018-09-03T13:11:08.378Z,100604.30
2018-09-03T13:13:36.448Z,100602.66
2018-09-03T13:16:04.575Z,100602.41
2018-09-03T13:18:32.658Z,100599.14
2018-09-03T13:21:00.722Z,100607.31
2018-09-03T13:23:28.811Z,100594.72
2018-09-03T13:25:56.899Z,100603.45
2018-09-03T13:28:24.981Z,100596.64
2018-09-03T13:30:53.085Z,100600.18
2018-09-03T13:33:21.148Z,100592.81
2018-09-03T13:35:49.240Z,100592.80
2018-09-03T13:38:17.331Z,100589.53
2018-09-03T13:40:45.410Z,100593.36
2018-09-03T13:43:13.496Z,100598.81
2018-09-03T13:45:41.625Z,100594.14
2018-09-03T13:48:09.722Z,100582.66
2018-09-03T13:50:37.868Z,100590.83
2018-09-03T13:53:06.123Z,100591.95
2018-09-03T13:55:34.207Z,100591.98
2018-09-03T13:58:02.276Z,100587.06
2018-09-03T14:00:30.345Z,100585.69
2018-09-03T14:02:58.413Z,100585.95
2018-09-03T14:05:26.484Z,100571.22
2018-09-03T14:07:54.602Z,100571.77
2018-09-03T14:10:22.723Z,100580.50
2018-09-03T14:12:50.857Z,100573.94
2018-09-03T14:15:18.940Z,100579.11
2018-09-03T14:17:46.991Z,100573.63
2018-09-03T14:20:15.069Z,100573.12
2018-09-03T14:25:10.292Z,100567.97
2018-09-03T14:27:38.348Z,100561.67
2018-09-03T14:30:06.524Z,100578.31
2018-09-03T14:32:34.588Z,100576.67
2018-09-03T14:35:02.670Z,100573.94
2018-09-03T14:37:30.735Z,100558.95
2018-09-03T14:39:58.789Z,100567.41
2018-09-03T14:42:26.872Z,100567.38
2018-09-03T14:44:55.135Z,100566.32
2018-09-03T14:47:23.262Z,100563.86
2018-09-03T14:49:51.314Z,100567.15
2018-09-03T14:52:19.394Z,100566.63
2018-09-03T14:54:47.648Z,100565.57
2018-09-03T14:57:15.743Z,100566.92
2018-09-03T14:59:43.835Z,100566.13
2018-09-03T15:02:12.104Z,100560.64
2018-09-03T15:04:40.212Z,100565.84
2018-09-03T15:07:08.300Z,100565.84
2018-09-03T15:09:36.381Z,100566.38
2018-09-03T15:12:04.510Z,100560.90
2018-09-03T15:14:32.592Z,100567.73
2018-09-03T15:17:00.689Z,100567.17
2018-09-03T15:19:28.787Z,100564.16
2018-09-03T15:21:56.871Z,100560.04
2018-09-03T15:24:25.004Z,100560.86
2018-09-03T15:26:53.086Z,100558.96
2018-09-03T15:29:21.133Z,100558.70
2018-09-03T15:31:49.200Z,100551.34
2018-09-03T15:34:17.311Z,100551.63
2018-09-03T15:36:45.494Z,100549.45
2018-09-03T15:39:13.694Z,100548.61
2018-09-03T15:41:42.205Z,100543.97
2018-09-03T15:44:10.321Z,100545.88
2018-09-03T15:46:38.380Z,100537.42
2018-09-03T15:49:06.469Z,100541.78
2018-09-03T15:51:34.513Z,100548.08
2018-09-03T15:54:02.655Z,100544.27
2018-09-03T15:56:30.639Z,100546.70
2018-09-03T15:58:58.722Z,100544.83
2018-09-03T16:01:26.812Z,100545.63
2018-09-03T16:03:55.131Z,100546.73
2018-09-03T16:06:23.200Z,100542.91
2018-09-03T16:08:51.424Z,100541.51
2018-09-03T16:11:19.551Z,100545.61
2018-09-03T16:13:47.619Z,100543.97
2018-09-03T16:16:15.693Z,100549.42
2018-09-03T16:18:43.831Z,100554.05
2018-09-03T16:21:11.895Z,100551.32
2018-09-03T16:23:40.055Z,100554.86
2018-09-03T16:26:08.119Z,100555.97
2018-09-03T16:28:36.207Z,100552.42
2018-09-03T16:31:04.282Z,100551.32
2018-09-03T16:33:32.386Z,100552.70
2018-09-03T16:36:00.563Z,100546.68
2018-09-03T16:38:28.587Z,100544.20
2018-09-03T16:40:56.659Z,100552.64
2018-09-03T16:43:24.736Z,100551.83
2018-09-03T16:45:52.829Z,100549.36
2018-09-03T16:48:20.919Z,100551.26
2018-09-03T16:50:49.079Z,100551.01
2018-09-03T16:53:17.145Z,100553.45
2018-09-03T16:55:45.232Z,100545.56
2018-09-03T16:58:13.403Z,100552.89
2018-09-03T17:00:41.479Z,100552.37
2018-09-03T17:03:09.552Z,100550.98
2018-09-03T17:05:37.602Z,100547.11
2018-09-03T17:08:05.844Z,100550.38
2018-09-03T17:10:33.787Z,100546.53
2018-09-03T17:13:01.888Z,100548.91
2018-09-03T17:15:29.888Z,100544.27
2018-09-03T17:17:57.975Z,100533.33
2018-09-03T17:20:26.086Z,100540.70
2018-09-03T17:22:54.191Z,100541.23
2018-09-03T17:25:22.252Z,100544.72
2018-09-03T17:27:50.355Z,100538.19
2018-09-03T17:30:19.162Z,100548.81
2018-09-03T17:32:47.257Z,100552.37
2018-09-03T17:35:15.333Z,100552.66
2018-09-03T17:37:43.403Z,100548.64
2018-09-03T17:40:11.468Z,100555.73
2018-09-03T17:42:39.545Z,100553.19
2018-09-03T17:45:08.307Z,100561.11
2018-09-03T17:47:36.871Z,100555.42
2018-09-03T17:50:05.413Z,100568.80
2018-09-03T17:52:34.435Z,100567.37
2018-09-03T17:55:06.190Z,100568.43
2018-09-03T17:57:34.377Z,100568.67
2018-09-03T18:00:02.955Z,100567.82
2018-09-03T18:02:31.120Z,100573.27
2018-09-03T18:04:59.302Z,100574.36
2018-09-03T18:07:27.489Z,100571.59
2018-09-03T18:09:55.936Z,100568.02
2018-09-03T18:12:27.516Z,100572.95
2018-09-03T18:14:57.144Z,100572.10
2018-09-03T18:17:25.367Z,100579.12
2018-09-03T18:19:53.598Z,100572.08
2018-09-03T18:22:22.479Z,100575.09
2018-09-03T18:24:51.281Z,100573.41
2018-09-03T18:27:19.786Z,100561.65
2018-09-03T18:29:51.028Z,100575.46
2018-09-03T18:32:19.645Z,100568.98
2018-09-03T18:34:48.026Z,100570.28
2018-09-03T18:37:16.943Z,100568.23
2018-09-03T18:39:47.063Z,100572.53
2018-09-03T18:42:15.328Z,100572.50
2018-09-03T18:44:43.860Z,100565.67
2018-09-03T18:47:12.054Z,100568.13
2018-09-03T18:49:40.294Z,100571.94
2018-09-03T18:52:09.155Z,100579.81
2018-09-03T18:54:37.629Z,100576.85
2018-09-03T18:57:05.923Z,100577.38
2018-09-03T18:59:34.161Z,100580.84
2018-09-03T19:02:03.223Z,100571.23
2018-09-03T19:04:31.900Z,100584.24
2018-09-03T19:07:03.994Z,100586.05
2018-09-03T19:09:33.306Z,100583.27
2018-09-03T19:12:01.598Z,100586.25
2018-09-03T19:14:29.944Z,100589.09
2018-09-03T19:16:58.189Z,100588.77
2018-09-03T19:19:30.488Z,100582.91
2018-09-03T19:21:58.846Z,100589.23
2018-09-03T19:24:27.495Z,100583.80
2018-09-03T19:26:57.305Z,100588.17
2018-09-03T19:29:25.547Z,100592.58
2018-09-03T19:31:53.791Z,100586.81
2018-09-03T19:34:22.186Z,100583.00
2018-09-03T19:36:52.150Z,100593.58
2018-09-03T19:39:20.727Z,100589.91
2018-09-03T19:41:48.964Z,100588.98
2018-09-03T19:44:17.463Z,100593.82
2018-09-03T19:46:48.384Z,100592.13
2018-09-03T19:49:16.588Z,100590.66
2018-09-03T19:51:45.328Z,100598.40
2018-09-03T19:54:13.753Z,100596.55
2018-09-03T19:56:41.960Z,100604.64
2018-09-03T19:59:13.579Z,100592.87
2018-09-03T20:01:41.813Z,100597.81
2018-09-03T20:04:10.608Z,100585.80
2018-09-03T20:06:42.124Z,100592.67
2018-09-03T20:09:14.199Z,100596.93
2018-09-03T20:11:57.635Z,100601.27
2018-09-03T20:14:26.290Z,100598.39
2018-09-03T20:16:54.564Z,100595.16
2018-09-03T20:19:22.896Z,100592.36
2018-09-03T20:21:51.077Z,100592.78
2018-09-03T20:24:19.668Z,100601.28
2018-09-03T20:26:48.681Z,100595.86
2018-09-03T20:35:28.288Z,100593.30
2018-09-03T20:37:56.480Z,100588.22
2018-09-03T20:40:24.763Z,100586.04
2018-09-03T20:42:54.055Z,100588.23
2018-09-03T20:45:24.173Z,100587.83
2018-09-03T20:47:52.479Z,100594.81
2018-09-03T20:50:20.712Z,100586.23
2018-09-03T20:52:49.046Z,100593.08
2018-09-03T20:55:17.380Z,100591.89
2018-09-03T20:57:45.630Z,100591.09
2018-09-03T21:00:13.858Z,100585.77
2018-09-03T21:02:42.578Z,100590.00
2018-09-03T21:05:11.846Z,100586.73
2018-09-03T21:07:40.092Z,100583.28
2018-09-03T21:10:08.532Z,100585.52
2018-09-03T21:12:36.780Z,100588.36
2018-09-03T21:15:05.116Z,100588.48
2018-09-03T21:17:33.304Z,100592.92
2018-09-03T21:20:01.573Z,100585.97
2018-09-03T21:22:29.855Z,100583.17
2018-09-03T21:24:58.690Z,100589.95
2018-09-03T21:27:27.020Z,100591.11
2018-09-03T21:29:55.322Z,100592.78
2018-09-03T21:32:23.752Z,100582.87
2018-09-03T21:34:52.031Z,100583.03
2018-09-03T21:37:21.324Z,100583.91
2018-09-03T21:39:49.623Z,100587.72
2018-09-03T21:42:17.810Z,100588.54
2018-09-03T21:44:46.052Z,100587.75
2018-09-03T21:47:14.273Z,100589.93
2018-09-03T21:49:42.511Z,100596.98
2018-09-03T21:52:10.726Z,100598.57
2018-09-03T21:54:38.921Z,100607.80
2018-09-03T21:57:07.977Z,100599.93
2018-09-03T21:59:36.283Z,100596.83
2018-09-03T22:02:08.894Z,100597.73
2018-09-03T22:04:38.165Z,100594.34
2018-09-03T22:07:07.026Z,100592.98
2018-09-03T22:09:35.568Z,100593.20
2018-09-03T22:12:03.863Z,100587.03
2018-09-03T22:14:32.193Z,100588.34
2018-09-03T22:17:00.700Z,100573.91
2018-09-03T22:19:28.892Z,100582.61
2018-09-03T22:21:57.181Z,100576.09
2018-09-03T22:24:25.283Z,100563.73
2018-09-03T22:26:53.366Z,100576.44
2018-09-03T22:29:21.455Z,100578.85
2018-09-03T22:31:49.544Z,100572.96
2018-09-03T22:34:17.636Z,100574.09
2018-09-03T22:36:45.780Z,100573.06
2018-09-03T22:39:14.232Z,100576.61
2018-09-03T22:41:42.570Z,100569.81
2018-09-03T22:44:10.666Z,100574.67
2018-09-03T22:46:38.743Z,100568.67
2018-09-03T22:49:06.996Z,100575.04
2018-09-03T22:51:35.101Z,100567.16
2018-09-03T22:54:03.192Z,100573.17
2018-09-03T22:56:31.282Z,100570.45
2018-09-03T22:58:59.367Z,100569.61
2018-09-03T23:01:27.456Z,100570.88
2018-09-03T23:03:55.591Z,100569.90
2018-09-03T23:06:23.732Z,100566.80
2018-09-03T23:08:51.820Z,100563.30
2018-09-03T23:11:19.936Z,100564.09
2018-09-03T23:13:48.012Z,100563.62
2018-09-03T23:16:16.091Z,100556.59
2018-09-03T23:18:44.355Z,100559.83
2018-09-03T23:21:12.452Z,100560.34
2018-09-03T23:23:40.527Z,100564.16
2018-09-03T23:26:08.612Z,100563.26
2018-09-03T23:28:36.699Z,100560.55
2018-09-03T23:31:04.803Z,100558.56
2018-09-03T23:33:32.959Z,100568.20
2018-09-03T23:36:01.048Z,100561.75
2018-09-03T23:38:29.125Z,100558.36
2018-09-03T23:40:57.259Z,100552.64
2018-09-03T23:43:25.359Z,100555.36
2018-09-03T23:45:53.454Z,100559.36
2018-09-03T23:48:21.551Z,100553.55
2018-09-03T23:50:49.614Z,100565.93
2018-09-03T23:53:17.696Z,100558.66
2018-09-03T23:55:45.775Z,100559.74
2018-09-03T23:58:13.858Z,100561.18
